Time;durP1;ratioP1;P1;durP2;ratioP2;P2;SDS_P1;SDS_P2;PMS_P1;PMS_P2;Temp;Humidity;BMP_temperature;BMP_pressure;BME280_temperature;BME280_humidity;BME280_pressure;Samples;Min_cycle;Max_cycle;Signal;HPM_P1;HPM_P2
2022/03/30 00:01:35;;;;;;;33.63;14.25;;;;;;;;;;143741;581;46020;-62
2022/03/30 00:04:02;;;;;;;27.48;13.25;;;;;;;;;;143740;616;46022;-62
2022/03/30 00:06:29;;;;;;;26.02;12.95;;;;;;;;;;143740;728;46011;-62
2022/03/30 00:08:56;;;;;;;18.20;10.30;;;;;;;;;;143741;569;45022;-62
2022/03/30 00:11:24;;;;;;;18.58;12.05;;;;;;;;;;143743;637;46019;-62
2022/03/30 00:13:51;;;;;;;26.67;12.18;;;;;;;;;;143740;595;46023;-62
2022/03/30 00:16:18;;;;;;;17.90;11.30;;;;;;;;;;143742;572;46010;-62
2022/03/30 00:18:45;;;;;;;19.30;10.45;;;;;;;;;;143744;648;45022;-62
2022/03/30 00:21:12;;;;;;;27.08;13.68;;;;;;;;;;143738;608;47021;-62
2022/03/30 00:23:39;;;;;;;29.00;13.50;;;;;;;;;;143738;575;46022;-62
2022/03/30 00:26:06;;;;;;;22.40;11.93;;;;;;;;;;143741;590;46010;-63
2022/03/30 00:28:33;;;;;;;27.25;13.60;;;;;;;;;;143742;633;45023;-62
2022/03/30 00:31:00;;;;;;;24.65;12.85;;;;;;;;;;143738;608;47020;-62
2022/03/30 00:33:27;;;;;;;28.02;12.32;;;;;;;;;;143743;641;46022;-62
2022/03/30 00:35:54;;;;;;;21.92;12.43;;;;;;;;;;143741;609;46019;-62
2022/03/30 00:38:22;;;;;;;24.98;13.88;;;;;;;;;;143741;569;46036;-63
2022/03/30 00:40:49;;;;;;;22.77;12.80;;;;;;;;;;143742;636;46022;-62
2022/03/30 00:43:16;;;;;;;21.73;11.02;;;;;;;;;;143738;610;46021;-62
2022/03/30 00:45:43;;;;;;;18.95;9.98;;;;;;;;;;143742;580;46010;-63
2022/03/30 00:48:10;;;;;;;18.33;10.75;;;;;;;;;;143743;615;45020;-62
2022/03/30 00:50:37;;;;;;;16.62;10.27;;;;;;;;;;143742;584;46022;-63
2022/03/30 00:53:04;;;;;;;14.10;9.55;;;;;;;;;;143739;566;46020;-63
2022/03/30 00:55:32;;;;;;;25.70;12.05;;;;;;;;;;143741;580;46010;-62
2022/03/30 00:57:59;;;;;;;20.88;11.48;;;;;;;;;;143742;648;46021;-62
2022/03/30 01:00:27;;;;;;;23.15;11.12;;;;;;;;;;143742;628;46020;-63
2022/03/30 01:02:54;;;;;;;18.52;10.25;;;;;;;;;;143740;564;46010;-62
2022/03/30 01:05:21;;;;;;;18.67;10.88;;;;;;;;;;143742;594;46026;-62
2022/03/30 01:07:48;;;;;;;21.50;12.40;;;;;;;;;;143743;596;46012;-62
2022/03/30 01:10:17;;;;;;;23.05;11.90;;;;;;;;;;143740;637;46022;-63
2022/03/30 01:12:46;;;;;;;17.35;10.77;;;;;;;;;;143741;588;46021;-62
2022/03/30 01:15:14;;;;;;;15.07;9.73;;;;;;;;;;143743;591;45910;-62
2022/03/30 01:17:41;;;;;;;18.95;10.07;;;;;;;;;;143744;570;46010;-62
2022/03/30 01:20:10;;;;;;;18.20;11.48;;;;;;;;;;143742;650;46022;-62
2022/03/30 01:22:37;;;;;;;24.35;12.48;;;;;;;;;;143739;592;46020;-63
2022/03/30 01:25:05;;;;;;;16.42;10.07;;;;;;;;;;143740;658;46020;-62
2022/03/30 01:27:32;;;;;;;18.10;11.77;;;;;;;;;;143743;565;46020;-62
2022/03/30 01:32:52;;;;;;;22.17;11.95;;;;;;;;;;143741;602;46020;-63
2022/03/30 01:35:19;;;;;;;23.58;10.50;;;;;;;;;;143740;613;46021;-63
2022/03/30 01:37:46;;;;;;;19.23;11.02;;;;;;;;;;143744;581;46012;-63
2022/03/30 01:40:13;;;;;;;21.73;11.55;;;;;;;;;;143740;571;46022;-62
2022/03/30 01:42:40;;;;;;;18.40;11.88;;;;;;;;;;143740;619;46021;-62
2022/03/30 01:45:11;;;;;;;18.25;10.50;;;;;;;;;;143740;587;46020;-62
2022/03/30 01:47:42;;;;;;;19.20;10.45;;;;;;;;;;143744;597;46007;-62
2022/03/30 01:50:09;;;;;;;22.58;12.20;;;;;;;;;;143742;635;46021;-62
2022/03/30 01:52:36;;;;;;;27.62;13.90;;;;;;;;;;143740;642;46020;-62
2022/03/30 01:55:04;;;;;;;26.52;13.88;;;;;;;;;;143739;580;46020;-62
2022/03/30 01:57:31;;;;;;;21.75;12.05;;;;;;;;;;143742;570;46012;-63
2022/03/30 01:59:58;;;;;;;24.98;10.65;;;;;;;;;;143743;575;46020;-62
2022/03/30 02:02:25;;;;;;;34.97;12.77;;;;;;;;;;143740;596;46020;-62
2022/03/30 02:04:52;;;;;;;26.30;11.95;;;;;;;;;;143743;564;46010;-62
2022/03/30 02:07:20;;;;;;;22.45;12.60;;;;;;;;;;143743;665;46012;-62
2022/03/30 02:09:48;;;;;;;21.90;12.02;;;;;;;;;;143743;577;46020;-62
2022/03/30 02:12:15;;;;;;;27.83;11.73;;;;;;;;;;143740;613;46020;-62
2022/03/30 02:14:42;;;;;;;23.95;12.57;;;;;;;;;;143742;564;46018;-62
2022/03/30 02:17:09;;;;;;;36.67;14.38;;;;;;;;;;143739;658;46020;-63
2022/03/30 02:19:36;;;;;;;28.58;14.35;;;;;;;;;;143742;617;46021;-62
2022/03/30 02:22:03;;;;;;;30.83;13.65;;;;;;;;;;143740;609;46020;-62
2022/03/30 02:24:31;;;;;;;30.08;13.55;;;;;;;;;;143743;575;46010;-62
2022/03/30 02:26:58;;;;;;;32.97;13.80;;;;;;;;;;143743;622;46020;-62
2022/03/30 02:29:25;;;;;;;24.35;12.25;;;;;;;;;;143742;573;46020;-63
2022/03/30 02:31:52;;;;;;;35.50;13.55;;;;;;;;;;143740;641;46020;-62
2022/03/30 02:34:19;;;;;;;30.23;12.85;;;;;;;;;;143742;580;46019;-63
2022/03/30 02:36:46;;;;;;;37.67;17.30;;;;;;;;;;143743;637;46020;-63
2022/03/30 02:39:15;;;;;;;21.75;11.85;;;;;;;;;;143738;588;47020;-62
2022/03/30 02:41:42;;;;;;;39.42;14.00;;;;;;;;;;143740;618;46011;-63
2022/03/30 02:44:09;;;;;;;27.75;12.07;;;;;;;;;;143743;609;46018;-63
2022/03/30 02:46:36;;;;;;;30.17;12.75;;;;;;;;;;143742;614;46012;-63
2022/03/30 02:49:04;;;;;;;22.85;11.40;;;;;;;;;;143742;591;46032;-62
2022/03/30 02:51:31;;;;;;;16.85;10.43;;;;;;;;;;143739;643;46918;-62
2022/03/30 02:53:59;;;;;;;16.35;10.30;;;;;;;;;;143742;581;46026;-62
2022/03/30 02:56:25;;;;;;;28.65;12.55;;;;;;;;;;143743;646;46010;-62
2022/03/30 02:58:52;;;;;;;26.98;12.60;;;;;;;;;;143740;577;46023;-63
2022/03/30 03:01:19;;;;;;;16.27;10.82;;;;;;;;;;143741;598;46010;-63
2022/03/30 03:03:47;;;;;;;22.08;11.32;;;;;;;;;;143742;630;46019;-63
2022/03/30 03:06:13;;;;;;;21.08;10.90;;;;;;;;;;143743;571;46021;-63
2022/03/30 03:08:40;;;;;;;19.02;10.32;;;;;;;;;;143740;570;46022;-63
2022/03/30 03:11:07;;;;;;;18.08;10.55;;;;;;;;;;143741;580;46011;-62
2022/03/30 03:13:34;;;;;;;24.35;11.60;;;;;;;;;;143738;569;46027;-62
2022/03/30 03:16:01;;;;;;;17.15;10.30;;;;;;;;;;143743;636;46020;-63
2022/03/30 03:18:29;;;;;;;20.77;10.70;;;;;;;;;;143740;583;46022;-63
2022/03/30 03:20:55;;;;;;;20.48;10.00;;;;;;;;;;143739;564;47010;-63
2022/03/30 03:23:23;;;;;;;21.27;11.25;;;;;;;;;;143742;602;46018;-62
2022/03/30 03:25:50;;;;;;;24.02;11.45;;;;;;;;;;143742;580;46012;-63
2022/03/30 03:28:17;;;;;;;21.27;11.52;;;;;;;;;;143740;579;46023;-63
2022/03/30 03:30:43;;;;;;;28.42;12.27;;;;;;;;;;143741;584;46010;-63
2022/03/30 03:33:11;;;;;;;26.27;12.52;;;;;;;;;;143740;569;46019;-63
2022/03/30 03:35:38;;;;;;;23.05;11.82;;;;;;;;;;143741;595;46012;-63
2022/03/30 03:38:06;;;;;;;23.25;11.82;;;;;;;;;;143740;580;46022;-62
2022/03/30 03:40:33;;;;;;;23.77;11.75;;;;;;;;;;143740;587;46020;-63
2022/03/30 03:43:01;;;;;;;18.85;11.02;;;;;;;;;;143742;576;46018;-63
2022/03/30 03:45:28;;;;;;;20.52;11.63;;;;;;;;;;143741;574;46012;-63
2022/03/30 03:47:55;;;;;;;30.10;13.77;;;;;;;;;;143742;624;46021;-62
2022/03/30 03:50:22;;;;;;;27.20;12.05;;;;;;;;;;143740;615;46021;-62
2022/03/30 03:52:50;;;;;;;21.83;12.20;;;;;;;;;;143742;569;46018;-62
2022/03/30 03:55:17;;;;;;;18.48;11.00;;;;;;;;;;143743;574;46013;-63
2022/03/30 03:57:44;;;;;;;20.65;11.25;;;;;;;;;;143739;562;47020;-62
2022/03/30 04:00:12;;;;;;;26.20;13.57;;;;;;;;;;143740;570;46010;-62
2022/03/30 04:02:41;;;;;;;28.87;13.50;;;;;;;;;;143742;593;46018;-63
2022/03/30 04:05:13;;;;;;;20.60;12.48;;;;;;;;;;143741;573;46012;-62
2022/03/30 04:07:41;;;;;;;22.20;10.48;;;;;;;;;;143743;567;46020;-62
2022/03/30 04:10:09;;;;;;;22.70;10.55;;;;;;;;;;143740;656;46020;-63
2022/03/30 04:12:36;;;;;;;29.42;13.27;;;;;;;;;;143743;586;46010;-62
2022/03/30 04:15:03;;;;;;;23.02;10.85;;;;;;;;;;143744;569;46012;-63
2022/03/30 04:17:32;;;;;;;18.10;10.57;;;;;;;;;;143739;566;46022;-63
2022/03/30 04:19:59;;;;;;;22.45;11.52;;;;;;;;;;143740;624;46021;-62
2022/03/30 04:22:26;;;;;;;27.65;12.07;;;;;;;;;;143741;622;46018;-63
2022/03/30 04:24:53;;;;;;;29.35;11.93;;;;;;;;;;143743;606;46020;-62
2022/03/30 04:27:20;;;;;;;24.42;10.50;;;;;;;;;;143740;597;46023;-62
2022/03/30 04:29:47;;;;;;;27.95;13.82;;;;;;;;;;143737;575;46020;-62
2022/03/30 04:32:15;;;;;;;27.87;13.32;;;;;;;;;;143742;566;46019;-62
2022/03/30 04:34:41;;;;;;;31.58;13.15;;;;;;;;;;143745;626;46012;-63
2022/03/30 04:37:08;;;;;;;31.95;14.02;;;;;;;;;;143741;664;46022;-63
2022/03/30 04:39:36;;;;;;;33.30;14.82;;;;;;;;;;143741;577;46010;-63
2022/03/30 04:42:03;;;;;;;39.30;16.60;;;;;;;;;;143742;595;46018;-63
2022/03/30 04:44:30;;;;;;;26.27;11.60;;;;;;;;;;143745;635;46012;-63
2022/03/30 04:46:57;;;;;;;27.13;12.20;;;;;;;;;;143741;587;46022;-63
2022/03/30 04:49:24;;;;;;;37.70;15.32;;;;;;;;;;143741;607;46011;-63
2022/03/30 04:51:51;;;;;;;34.05;15.15;;;;;;;;;;143740;656;46020;-63
2022/03/30 04:54:18;;;;;;;29.67;12.43;;;;;;;;;;143743;651;46010;-63
2022/03/30 04:56:47;;;;;;;23.23;11.10;;;;;;;;;;143742;583;46022;-63
2022/03/30 04:59:14;;;;;;;32.25;13.48;;;;;;;;;;143741;634;46020;-63
2022/03/30 05:01:42;;;;;;;27.55;12.98;;;;;;;;;;143744;591;46010;-62
2022/03/30 05:04:09;;;;;;;31.90;13.52;;;;;;;;;;143742;644;46012;-62
2022/03/30 05:06:36;;;;;;;29.35;13.48;;;;;;;;;;143744;611;46020;-63
2022/03/30 05:09:03;;;;;;;32.95;13.27;;;;;;;;;;143740;608;46010;-62
2022/03/30 05:11:31;;;;;;;23.67;12.90;;;;;;;;;;143741;565;46021;-62
2022/03/30 05:13:58;;;;;;;20.00;10.50;;;;;;;;;;143742;637;46012;-62
2022/03/30 05:16:25;;;;;;;46.63;17.52;;;;;;;;;;143740;613;46022;-62
2022/03/30 05:18:52;;;;;;;36.40;15.52;;;;;;;;;;143740;573;46021;-62
2022/03/30 05:21:19;;;;;;;39.95;15.38;;;;;;;;;;143742;646;46020;-62
2022/03/30 05:23:46;;;;;;;36.75;14.95;;;;;;;;;;143743;607;46012;-62
2022/03/30 05:26:14;;;;;;;44.28;17.95;;;;;;;;;;143740;585;46022;-63
2022/03/30 05:28:42;;;;;;;39.25;16.10;;;;;;;;;;143740;613;46918;-63
2022/03/30 05:31:09;;;;;;;40.50;15.38;;;;;;;;;;143743;590;46018;-63
2022/03/30 05:33:36;;;;;;;44.58;17.25;;;;;;;;;;143743;580;46021;-63
2022/03/30 05:36:04;;;;;;;54.10;18.85;;;;;;;;;;143743;587;46020;-62
2022/03/30 05:38:31;;;;;;;41.58;17.92;;;;;;;;;;143741;594;46917;-63
2022/03/30 05:40:58;;;;;;;50.15;17.42;;;;;;;;;;143741;583;46021;-62
2022/03/30 05:43:25;;;;;;;44.60;17.35;;;;;;;;;;143744;613;46020;-62
2022/03/30 05:45:52;;;;;;;50.83;20.08;;;;;;;;;;143740;573;46022;-63
2022/03/30 05:48:19;;;;;;;69.05;18.90;;;;;;;;;;143742;597;46010;-63
2022/03/30 05:50:46;;;;;;;53.80;17.83;;;;;;;;;;143743;579;46018;-63
2022/03/30 05:53:17;;;;;;;43.50;15.45;;;;;;;;;;143741;608;46020;-62
2022/03/30 05:55:44;;;;;;;34.95;14.30;;;;;;;;;;143741;639;46022;-63
2022/03/30 05:58:13;;;;;;;53.78;17.15;;;;;;;;;;143740;592;46020;-62
2022/03/30 06:00:40;;;;;;;39.05;16.02;;;;;;;;;;143740;628;46020;-63
2022/03/30 06:03:07;;;;;;;48.40;16.40;;;;;;;;;;143743;591;46021;-62
2022/03/30 06:05:34;;;;;;;39.78;15.43;;;;;;;;;;143739;601;46023;-62
2022/03/30 06:08:01;;;;;;;40.03;16.12;;;;;;;;;;143741;576;46020;-62
2022/03/30 06:10:28;;;;;;;24.35;11.95;;;;;;;;;;143743;586;46018;-62
2022/03/30 06:12:56;;;;;;;30.62;12.55;;;;;;;;;;143743;701;46012;-62
2022/03/30 06:15:24;;;;;;;23.70;11.63;;;;;;;;;;143744;564;46020;-62
2022/03/30 06:17:54;;;;;;;26.58;10.27;;;;;;;;;;143740;630;46021;-62
2022/03/30 06:20:22;;;;;;;27.37;10.90;;;;;;;;;;143742;571;46020;-63
2022/03/30 06:22:49;;;;;;;23.45;11.48;;;;;;;;;;143745;591;46012;-63
2022/03/30 06:25:16;;;;;;;28.48;11.73;;;;;;;;;;143744;585;46021;-63
2022/03/30 06:27:43;;;;;;;32.85;11.57;;;;;;;;;;143742;582;46020;-63
2022/03/30 06:30:11;;;;;;;26.25;11.52;;;;;;;;;;143744;572;46018;-63
2022/03/30 06:32:38;;;;;;;27.45;10.80;;;;;;;;;;143745;595;46012;-62
2022/03/30 06:35:06;;;;;;;26.87;9.25;;;;;;;;;;143741;580;46023;-62
2022/03/30 06:37:33;;;;;;;26.37;11.07;;;;;;;;;;143742;605;46020;-62
2022/03/30 06:40:00;;;;;;;28.00;11.50;;;;;;;;;;143745;629;46010;-63
2022/03/30 06:42:27;;;;;;;34.67;12.60;;;;;;;;;;143744;567;46012;-64
2022/03/30 06:44:56;;;;;;;38.17;13.88;;;;;;;;;;143743;897;46020;-63
2022/03/30 06:47:23;;;;;;;34.60;13.62;;;;;;;;;;143741;571;46021;-65
2022/03/30 06:49:50;;;;;;;31.83;13.13;;;;;;;;;;143744;621;46018;-64
2022/03/30 06:52:17;;;;;;;37.47;13.77;;;;;;;;;;143745;589;46020;-64
2022/03/30 06:54:44;;;;;;;40.17;14.07;;;;;;;;;;143742;600;46022;-63
2022/03/30 06:57:11;;;;;;;34.05;13.10;;;;;;;;;;143741;664;46010;-63
2022/03/30 06:59:38;;;;;;;37.88;12.95;;;;;;;;;;143743;564;46018;-63
2022/03/30 07:02:06;;;;;;;33.45;13.05;;;;;;;;;;143744;653;46020;-63
2022/03/30 07:04:35;;;;;;;41.50;13.65;;;;;;;;;;143741;723;46923;-63
2022/03/30 07:12:32;;;;;;;38.80;14.15;;;;;;;;;;143745;612;46020;-63
2022/03/30 07:15:00;;;;;;;45.92;14.90;;;;;;;;;;143742;608;46022;-64
2022/03/30 07:17:28;;;;;;;36.88;13.20;;;;;;;;;;143742;591;46021;-64
2022/03/30 07:19:55;;;;;;;38.97;13.05;;;;;;;;;;143741;593;46020;-64
2022/03/30 07:22:22;;;;;;;38.42;13.90;;;;;;;;;;143744;587;46020;-64
2022/03/30 07:24:49;;;;;;;40.80;14.63;;;;;;;;;;143742;615;47021;-64
2022/03/30 07:27:16;;;;;;;37.08;13.10;;;;;;;;;;143742;592;46020;-64
2022/03/30 07:29:43;;;;;;;42.05;12.95;;;;;;;;;;143744;637;46018;-64
2022/03/30 07:32:10;;;;;;;38.95;12.70;;;;;;;;;;143740;582;46021;-64
2022/03/30 07:34:37;;;;;;;39.65;12.27;;;;;;;;;;143742;573;46023;-64
2022/03/30 07:37:04;;;;;;;38.30;13.25;;;;;;;;;;143742;743;46020;-63
2022/03/30 07:39:31;;;;;;;38.17;15.25;;;;;;;;;;143744;607;46019;-63
2022/03/30 07:41:58;;;;;;;36.13;12.45;;;;;;;;;;143741;566;46028;-63
2022/03/30 07:44:25;;;;;;;35.83;13.93;;;;;;;;;;143743;589;46020;-63
2022/03/30 07:46:52;;;;;;;34.90;13.90;;;;;;;;;;143747;652;46022;-63
2022/03/30 07:49:19;;;;;;;29.70;12.02;;;;;;;;;;143743;579;46016;-63
2022/03/30 07:51:45;;;;;;;29.25;12.60;;;;;;;;;;143745;564;46022;-63
2022/03/30 07:54:12;;;;;;;34.03;14.38;;;;;;;;;;143744;570;46018;-64
2022/03/30 07:56:39;;;;;;;33.08;14.43;;;;;;;;;;143741;570;46022;-63
2022/03/30 07:59:06;;;;;;;26.37;13.23;;;;;;;;;;143744;734;46016;-64
2022/03/30 08:01:33;;;;;;;31.10;13.43;;;;;;;;;;143743;718;46013;-64
2022/03/30 08:04:00;;;;;;;24.98;12.55;;;;;;;;;;143743;576;46018;-64
2022/03/30 08:06:27;;;;;;;43.28;13.57;;;;;;;;;;143742;564;46022;-63
2022/03/30 08:08:54;;;;;;;37.42;16.35;;;;;;;;;;143742;689;46018;-63
2022/03/30 08:11:22;;;;;;;31.42;13.30;;;;;;;;;;143743;587;46012;-63
2022/03/30 08:13:49;;;;;;;36.88;16.00;;;;;;;;;;143746;569;46018;-63
2022/03/30 08:16:16;;;;;;;28.85;12.25;;;;;;;;;;143742;637;46010;-63
2022/03/30 08:18:42;;;;;;;25.55;12.90;;;;;;;;;;143740;577;46019;-63
2022/03/30 08:23:54;;;;;;;;;;;;;;;;;;143750;957;46019;-62
2022/03/30 08:26:21;;;;;;;27.20;13.57;;;;;;;;;;143745;588;46023;-63
2022/03/30 08:28:48;;;;;;;27.87;11.75;;;;;;;;;;143742;587;46018;-62
2022/03/30 08:31:15;;;;;;;29.12;12.45;;;;;;;;;;143745;615;46012;-62
2022/03/30 08:33:42;;;;;;;26.75;13.27;;;;;;;;;;143741;586;47018;-62
2022/03/30 08:36:09;;;;;;;35.83;13.10;;;;;;;;;;143742;589;46010;-63
2022/03/30 08:38:37;;;;;;;25.60;12.07;;;;;;;;;;143741;594;46018;-63
2022/03/30 08:41:04;;;;;;;27.15;11.77;;;;;;;;;;143746;618;46012;-62
2022/03/30 08:43:31;;;;;;;29.77;12.55;;;;;;;;;;143745;600;46018;-63
2022/03/30 08:46:00;;;;;;;35.28;13.07;;;;;;;;;;143742;592;46011;-63
2022/03/30 08:48:28;;;;;;;25.73;12.20;;;;;;;;;;143745;619;46010;-62
2022/03/30 08:50:56;;;;;;;40.58;13.18;;;;;;;;;;143744;573;46012;-62
2022/03/30 08:53:26;;;;;;;29.15;12.68;;;;;;;;;;143746;576;46019;-62
2022/03/30 08:55:53;;;;;;;24.30;11.93;;;;;;;;;;143740;594;46011;-63
2022/03/30 08:58:20;;;;;;;33.13;13.62;;;;;;;;;;143743;589;46016;-63
2022/03/30 09:00:47;;;;;;;26.92;11.70;;;;;;;;;;143744;598;46022;-64
2022/03/30 09:03:17;;;;;;;26.30;11.70;;;;;;;;;;143743;657;47018;-63
2022/03/30 09:05:44;;;;;;;22.62;10.45;;;;;;;;;;143742;584;46010;-65
2022/03/30 09:08:18;;;;;;;27.92;11.98;;;;;;;;;;143741;770;46018;-64
2022/03/30 09:10:47;;;;;;;35.30;13.48;;;;;;;;;;143744;726;46023;-63
2022/03/30 09:13:17;;;;;;;30.30;12.65;;;;;;;;;;143744;622;46018;-64
2022/03/30 09:15:45;;;;;;;36.03;11.98;;;;;;;;;;143742;563;46022;-65
2022/03/30 09:18:16;;;;;;;31.85;11.32;;;;;;;;;;143741;703;46018;-64
2022/03/30 09:20:46;;;;;;;27.37;11.00;;;;;;;;;;143745;725;46022;-64
2022/03/30 09:23:14;;;;;;;30.83;11.77;;;;;;;;;;143745;611;46019;-65
2022/03/30 09:25:47;;;;;;;29.33;11.75;;;;;;;;;;143739;610;46023;-64
2022/03/30 09:28:17;;;;;;;28.90;11.45;;;;;;;;;;143740;862;46016;-64
2022/03/30 09:30:45;;;;;;;27.15;12.05;;;;;;;;;;143744;696;46012;-64
2022/03/30 09:33:13;;;;;;;26.27;11.23;;;;;;;;;;143739;861;47021;-64
2022/03/30 09:35:42;;;;;;;24.87;10.88;;;;;;;;;;143742;569;46022;-64
2022/03/30 09:38:17;;;;;;;30.95;11.00;;;;;;;;;;143744;583;46010;-64
2022/03/30 09:40:50;;;;;;;25.70;13.00;;;;;;;;;;143743;599;46012;-64
2022/03/30 09:43:28;;;;;;;26.62;11.75;;;;;;;;;;143740;606;47020;-63
2022/03/30 09:46:13;;;;;;;26.98;10.70;;;;;;;;;;143742;585;46022;-64
2022/03/30 09:48:53;;;;;;;28.25;10.35;;;;;;;;;;143742;602;46018;-64
2022/03/30 09:51:30;;;;;;;21.75;10.25;;;;;;;;;;143746;730;46022;-64
2022/03/30 09:53:57;;;;;;;29.08;9.98;;;;;;;;;;143742;579;46020;-63
2022/03/30 09:56:25;;;;;;;38.20;10.48;;;;;;;;;;143742;590;46022;-64
2022/03/30 09:59:05;;;;;;;25.52;9.85;;;;;;;;;;143744;565;46016;-64
2022/03/30 10:01:34;;;;;;;26.12;9.43;;;;;;;;;;143744;696;46012;-63
2022/03/30 10:04:04;;;;;;;24.10;10.00;;;;;;;;;;143743;620;46020;-65
2022/03/30 10:06:33;;;;;;;35.92;10.40;;;;;;;;;;143741;593;46922;-65
2022/03/30 10:09:00;;;;;;;29.35;9.40;;;;;;;;;;143744;660;46016;-65
2022/03/30 10:11:29;;;;;;;26.95;9.10;;;;;;;;;;143744;610;46022;-65
2022/03/30 10:14:01;;;;;;;30.30;10.90;;;;;;;;;;143746;638;46018;-65
2022/03/30 10:16:28;;;;;;;25.52;8.43;;;;;;;;;;143742;572;46023;-64
2022/03/30 10:18:56;;;;;;;30.55;8.88;;;;;;;;;;143742;612;46018;-64
2022/03/30 10:21:49;;;;;;;23.83;8.82;;;;;;;;;;143745;604;46012;-64
2022/03/30 10:24:28;;;;;;;30.17;8.88;;;;;;;;;;143737;582;47018;-64
2022/03/30 10:27:17;;;;;;;29.65;9.32;;;;;;;;;;143737;628;46010;-66
2022/03/30 10:29:59;;;;;;;23.42;8.55;;;;;;;;;;143743;576;46025;-65
2022/03/30 10:32:32;;;;;;;34.15;10.52;;;;;;;;;;143747;577;45023;-66
2022/03/30 10:35:21;;;;;;;26.62;10.00;;;;;;;;;;143746;570;46018;-65
2022/03/30 10:37:58;;;;;;;24.85;9.77;;;;;;;;;;143742;583;46022;-65
2022/03/30 10:40:26;;;;;;;25.75;9.50;;;;;;;;;;143744;576;46024;-64
2022/03/30 10:42:58;;;;;;;22.70;8.63;;;;;;;;;;143744;565;46012;-64
2022/03/30 10:45:49;;;;;;;24.73;9.82;;;;;;;;;;143745;564;46019;-64
2022/03/30 10:48:37;;;;;;;28.12;10.18;;;;;;;;;;143742;637;46023;-63
2022/03/30 10:51:21;;;;;;;24.27;9.57;;;;;;;;;;143744;592;46016;-64
2022/03/30 10:53:52;;;;;;;19.85;9.05;;;;;;;;;;143745;572;46022;-64
2022/03/30 10:56:28;;;;;;;23.70;9.63;;;;;;;;;;143741;566;46018;-65
2022/03/30 10:59:15;;;;;;;18.33;8.43;;;;;;;;;;143743;574;46022;-64
2022/03/30 11:01:43;;;;;;;20.37;8.10;;;;;;;;;;143742;604;46016;-64
2022/03/30 11:04:21;;;;;;;26.55;10.30;;;;;;;;;;143741;577;46012;-65
2022/03/30 11:07:29;;;;;;;29.52;9.68;;;;;;;;;;143741;573;46018;-64
2022/03/30 11:10:21;;;;;;;26.83;10.82;;;;;;;;;;143740;589;46011;-64
2022/03/30 11:13:18;;;;;;;29.70;9.20;;;;;;;;;;143739;582;46018;-65
2022/03/30 11:16:19;;;;;;;24.83;8.88;;;;;;;;;;143743;652;46012;-64
2022/03/30 11:18:58;;;;;;;24.83;8.88;;;;;;;;;;143743;594;46018;-64
2022/03/30 11:21:25;;;;;;;27.25;10.02;;;;;;;;;;143739;586;47010;-64
2022/03/30 11:24:12;;;;;;;30.30;9.25;;;;;;;;;;143743;624;46019;-65
2022/03/30 11:27:20;;;;;;;30.92;9.25;;;;;;;;;;143742;576;46012;-65
2022/03/30 11:29:54;;;;;;;38.83;9.65;;;;;;;;;;143741;586;46018;-64
2022/03/30 11:32:50;;;;;;;21.48;8.77;;;;;;;;;;143738;612;46023;-65
2022/03/30 11:35:20;;;;;;;32.20;9.70;;;;;;;;;;143742;563;46016;-64
2022/03/30 11:38:06;;;;;;;26.60;8.85;;;;;;;;;;143744;583;46022;-65
2022/03/30 11:40:39;;;;;;;28.23;9.00;;;;;;;;;;143740;595;46044;-64
2022/03/30 11:43:06;;;;;;;31.05;11.10;;;;;;;;;;143741;564;46022;-65
2022/03/30 11:45:35;;;;;;;27.92;8.50;;;;;;;;;;143741;625;46017;-64
2022/03/30 11:48:08;;;;;;;24.98;9.43;;;;;;;;;;143741;565;46012;-65
2022/03/30 11:50:40;;;;;;;28.40;9.65;;;;;;;;;;143740;597;46018;-65
2022/03/30 11:53:09;;;;;;;26.45;9.35;;;;;;;;;;143737;565;46023;-65
2022/03/30 11:55:56;;;;;;;25.80;7.85;;;;;;;;;;143742;625;46016;-64
2022/03/30 11:58:44;;;;;;;23.23;8.60;;;;;;;;;;143744;592;46012;-65
2022/03/30 12:01:13;;;;;;;24.25;8.43;;;;;;;;;;143740;664;46020;-65
2022/03/30 12:03:42;;;;;;;25.15;9.88;;;;;;;;;;143741;611;46010;-64
2022/03/30 12:06:10;;;;;;;21.52;8.88;;;;;;;;;;143742;563;46016;-65
2022/03/30 12:08:42;;;;;;;27.52;9.40;;;;;;;;;;143745;600;46012;-64
2022/03/30 12:11:10;;;;;;;25.92;9.20;;;;;;;;;;143744;607;46018;-65
2022/03/30 12:13:37;;;;;;;24.67;10.25;;;;;;;;;;143740;576;46022;-65
2022/03/30 12:16:10;;;;;;;22.95;7.37;;;;;;;;;;143740;638;46019;-65
2022/03/30 12:18:42;;;;;;;20.98;7.93;;;;;;;;;;143743;588;46022;-65
2022/03/30 12:21:11;;;;;;;30.85;8.88;;;;;;;;;;143733;595;46020;-65
2022/03/30 12:23:59;;;;;;;21.73;7.95;;;;;;;;;;143739;587;47010;-64
2022/03/30 12:26:27;;;;;;;19.83;6.82;;;;;;;;;;143741;605;46016;-64
2022/03/30 12:29:05;;;;;;;21.85;9.63;;;;;;;;;;143743;573;46022;-64
2022/03/30 12:31:51;;;;;;;22.30;7.35;;;;;;;;;;143741;582;46021;-65
2022/03/30 12:34:20;;;;;;;17.58;7.80;;;;;;;;;;143740;601;46010;-65
2022/03/30 12:36:50;;;;;;;26.98;8.13;;;;;;;;;;143742;639;46017;-64
2022/03/30 12:39:23;;;;;;;21.10;7.95;;;;;;;;;;143739;581;46023;-65
2022/03/30 12:42:35;;;;;;;30.80;7.78;;;;;;;;;;143741;586;46020;-65
2022/03/30 12:45:05;;;;;;;19.17;6.53;;;;;;;;;;143740;598;46023;-63
2022/03/30 12:47:34;;;;;;;21.08;7.22;;;;;;;;;;143740;578;46018;-65
2022/03/30 12:50:06;;;;;;;31.75;8.23;;;;;;;;;;143740;674;46022;-64
2022/03/30 12:52:54;;;;;;;19.75;7.60;;;;;;;;;;143742;621;46019;-65
2022/03/30 12:55:32;;;;;;;23.23;8.15;;;;;;;;;;143740;587;46010;-64
2022/03/30 12:58:07;;;;;;;21.65;6.87;;;;;;;;;;143742;569;46016;-65
2022/03/30 13:00:43;;;;;;;20.92;7.28;;;;;;;;;;143741;615;46012;-64
2022/03/30 13:03:22;;;;;;;18.87;7.03;;;;;;;;;;143743;580;46018;-65
2022/03/30 13:06:04;;;;;;;14.93;7.05;;;;;;;;;;143740;609;46022;-64
2022/03/30 13:08:31;;;;;;;25.95;7.10;;;;;;;;;;143740;572;46019;-63
2022/03/30 13:11:01;;;;;;;25.37;7.47;;;;;;;;;;143742;596;46012;-63
2022/03/30 13:13:33;;;;;;;24.85;8.15;;;;;;;;;;143742;599;46018;-63
2022/03/30 13:16:17;;;;;;;19.35;7.10;;;;;;;;;;143740;588;46023;-64
2022/03/30 13:18:59;;;;;;;24.55;9.55;;;;;;;;;;143740;602;46016;-63
2022/03/30 13:21:40;;;;;;;23.90;7.93;;;;;;;;;;143738;622;46013;-65
2022/03/30 13:24:15;;;;;;;19.80;7.55;;;;;;;;;;143742;613;46019;-64
2022/03/30 13:26:43;;;;;;;22.83;7.95;;;;;;;;;;143741;664;46022;-64
2022/03/30 13:29:12;;;;;;;29.00;8.75;;;;;;;;;;143740;570;46018;-64
2022/03/30 13:31:43;;;;;;;28.80;10.25;;;;;;;;;;143744;609;46012;-65
2022/03/30 13:34:11;;;;;;;28.77;8.52;;;;;;;;;;143742;575;46018;-64
2022/03/30 13:36:38;;;;;;;25.45;7.57;;;;;;;;;;143740;586;46013;-64
2022/03/30 13:39:06;;;;;;;27.62;7.87;;;;;;;;;;143740;584;46018;-64
2022/03/30 13:41:35;;;;;;;24.77;8.40;;;;;;;;;;143743;565;46014;-63
2022/03/30 13:44:03;;;;;;;24.08;7.53;;;;;;;;;;143737;600;47020;-63
2022/03/30 13:46:30;;;;;;;26.52;8.57;;;;;;;;;;143740;593;46023;-64
2022/03/30 13:48:57;;;;;;;30.33;7.90;;;;;;;;;;143735;611;46018;-64
2022/03/30 13:51:24;;;;;;;30.50;7.87;;;;;;;;;;143743;590;46022;-64
2022/03/30 13:53:51;;;;;;;36.42;9.18;;;;;;;;;;143740;566;46021;-63
2022/03/30 13:56:18;;;;;;;28.33;8.10;;;;;;;;;;143741;642;46022;-64
2022/03/30 13:58:50;;;;;;;22.83;7.45;;;;;;;;;;143738;580;46912;-63
2022/03/30 14:01:18;;;;;;;25.17;8.68;;;;;;;;;;143743;571;46014;-63
2022/03/30 14:03:46;;;;;;;19.98;8.27;;;;;;;;;;143742;605;46018;-64
2022/03/30 14:06:13;;;;;;;22.55;7.70;;;;;;;;;;143740;612;46022;-63
2022/03/30 14:08:41;;;;;;;27.15;8.68;;;;;;;;;;143740;574;46018;-63
2022/03/30 14:11:08;;;;;;;26.87;8.07;;;;;;;;;;143741;579;46022;-64
2022/03/30 14:13:36;;;;;;;29.58;9.25;;;;;;;;;;143741;695;46019;-64
2022/03/30 14:16:03;;;;;;;30.12;8.98;;;;;;;;;;143741;566;46023;-64
2022/03/30 14:18:30;;;;;;;23.38;7.80;;;;;;;;;;143736;651;46016;-64
2022/03/30 14:20:58;;;;;;;35.92;9.05;;;;;;;;;;143743;564;46022;-64
2022/03/30 14:23:25;;;;;;;31.75;8.45;;;;;;;;;;143739;564;46021;-63
2022/03/30 14:25:53;;;;;;;28.52;8.07;;;;;;;;;;143739;604;46022;-65
2022/03/30 14:28:20;;;;;;;26.55;9.15;;;;;;;;;;143741;570;46018;-64
2022/03/30 14:30:47;;;;;;;32.15;9.20;;;;;;;;;;143743;573;46023;-63
2022/03/30 14:33:14;;;;;;;21.65;7.32;;;;;;;;;;143742;564;46018;-64
2022/03/30 14:35:41;;;;;;;24.25;9.30;;;;;;;;;;143739;614;46920;-64
2022/03/30 14:38:10;;;;;;;18.98;7.68;;;;;;;;;;143741;591;46020;-65
2022/03/30 14:40:38;;;;;;;20.37;7.62;;;;;;;;;;143742;587;46014;-63
2022/03/30 14:43:06;;;;;;;28.60;9.15;;;;;;;;;;143744;702;46019;-64
2022/03/30 14:45:33;;;;;;;23.27;9.05;;;;;;;;;;143740;589;46023;-64
2022/03/30 14:48:00;;;;;;;28.52;9.32;;;;;;;;;;143742;572;46016;-63